createdAt,value
2018-06-01T00:00:24.223Z,997.01
2018-06-01T00:01:24.196Z,996.78
2018-06-01T00:02:24.189Z,996.7
2018-06-01T00:03:24.180Z,996.81
2018-06-01T00:04:24.208Z,996.63
2018-06-01T00:05:24.190Z,996.7
2018-06-01T00:06:24.165Z,996.76
2018-06-01T00:07:24.172Z,996.54
2018-06-01T00:08:24.243Z,996.77
2018-06-01T00:09:24.252Z,996.77
2018-06-01T00:10:24.202Z,996.68
2018-06-01T00:11:24.175Z,996.74
2018-06-01T00:12:24.182Z,996.58
2018-06-01T00:13:24.192Z,996.65
2018-06-01T00:14:24.207Z,996.42
2018-06-01T00:15:24.182Z,996.44
2018-06-01T00:16:24.177Z,996.45
2018-06-01T00:17:24.249Z,996.35
2018-06-01T00:18:24.189Z,996.58
2018-06-01T00:19:24.175Z,996.14
2018-06-01T00:20:24.217Z,996.29
2018-06-01T00:21:24.198Z,996.25
2018-06-01T00:22:24.191Z,996.07
2018-06-01T00:23:24.194Z,996.13
2018-06-01T00:27:53.064Z,997.18
2018-06-01T00:28:53.062Z,997.07
2018-06-01T00:29:53.035Z,997.36
2018-06-01T00:30:53.072Z,997.27
2018-06-01T00:31:53.074Z,997.25
2018-06-01T00:32:53.229Z,997.42
2018-06-01T00:33:53.035Z,997.42
2018-06-01T00:34:53.037Z,997.78
2018-06-01T00:35:53.046Z,997.44
2018-06-01T00:36:53.036Z,997.76
2018-06-01T00:37:53.062Z,997.53
2018-06-01T00:38:53.068Z,997.9
2018-06-01T00:39:53.058Z,997.79
2018-06-01T00:40:53.062Z,997.71
2018-06-01T00:41:53.053Z,997.61
2018-06-01T00:42:53.092Z,997.99
2018-06-01T00:43:53.138Z,997.61
2018-06-01T00:44:53.123Z,997.94
2018-06-01T00:45:53.070Z,997.83
2018-06-01T00:46:53.059Z,998.08
2018-06-01T00:47:53.084Z,998.2
2018-06-01T00:48:53.072Z,998.25
2018-06-01T00:49:53.099Z,998.25
2018-06-01T00:50:53.110Z,998.1
2018-06-01T00:51:53.067Z,998.11
2018-06-01T00:54:11.429Z,998.37
2018-06-01T00:55:11.501Z,998.1
2018-06-01T00:56:11.428Z,997.98
2018-06-01T00:57:11.408Z,997.79
2018-06-01T00:58:11.433Z,998.12
2018-06-01T00:59:11.466Z,997.8
2018-06-01T01:00:11.448Z,997.61
2018-06-01T01:01:11.477Z,997.8
2018-06-01T01:02:11.431Z,997.66
2018-06-01T01:03:11.455Z,997.93
2018-06-01T01:04:11.439Z,997.76
2018-06-01T01:05:11.447Z,997.83
2018-06-01T01:06:11.475Z,997.64
2018-06-01T01:07:11.418Z,997.46
2018-06-01T01:08:11.426Z,997.65
2018-06-01T01:09:11.451Z,997.71
2018-06-01T01:10:11.479Z,997.64
2018-06-01T01:11:11.467Z,997.44
2018-06-01T01:12:11.448Z,997.52
2018-06-01T01:13:11.533Z,997.07
2018-06-01T01:14:11.461Z,997.43
2018-06-01T01:15:11.452Z,997.4
2018-06-01T01:16:11.435Z,997.36
2018-06-01T01:17:11.442Z,997.45
2018-06-01T01:18:11.474Z,997.33
2018-06-01T01:19:11.498Z,997.22
2018-06-01T01:20:11.466Z,997.36
2018-06-01T01:21:11.483Z,997.47
2018-06-01T01:22:11.475Z,997.27
2018-06-01T01:23:11.481Z,997.17
2018-06-01T01:24:11.483Z,997.3
2018-06-01T01:25:11.491Z,997.61
2018-06-01T01:26:11.499Z,997.63
2018-06-01T01:27:11.485Z,997.62
2018-06-01T01:28:11.490Z,997.33
2018-06-01T01:29:11.499Z,997.47
2018-06-01T01:30:11.532Z,997.36
2018-06-01T01:31:11.499Z,997.6
2018-06-01T01:32:11.513Z,997.59
2018-06-01T01:33:11.533Z,997.23
2018-06-01T01:34:11.490Z,997.18
2018-06-01T01:35:11.512Z,997.04
2018-06-01T01:36:11.482Z,997.21
2018-06-01T01:37:11.507Z,997.19
2018-06-01T01:38:11.490Z,997.35
2018-06-01T01:39:11.506Z,997.28
2018-06-01T01:40:11.509Z,996.8
2018-06-01T01:41:11.519Z,997.24
2018-06-01T01:42:11.502Z,997.17
2018-06-01T01:43:11.490Z,997.16
2018-06-01T01:44:11.515Z,997.03
2018-06-01T01:45:11.502Z,997.2
2018-06-01T01:46:11.523Z,996.89
2018-06-01T01:47:11.496Z,997.21
2018-06-01T01:48:11.506Z,996.78
2018-06-01T01:49:11.520Z,996.92
2018-06-01T01:50:11.519Z,996.98
2018-06-01T01:51:11.520Z,996.82
2018-06-01T01:52:11.504Z,997.13
2018-06-01T01:53:11.533Z,997.17
2018-06-01T01:54:11.515Z,997.31
2018-06-01T01:55:11.549Z,997.16
2018-06-01T01:56:11.512Z,997.05
2018-06-01T01:57:11.533Z,996.97
2018-06-01T01:58:11.560Z,997.14
2018-06-01T01:59:11.526Z,997.06
2018-06-01T02:00:11.553Z,996.99
2018-06-01T02:01:11.528Z,997
2018-06-01T02:02:11.556Z,997.31
2018-06-01T02:03:12.914Z,996.97
2018-06-01T02:04:11.562Z,997.14
2018-06-01T02:05:11.554Z,996.95
2018-06-01T02:06:11.572Z,997.44
2018-06-01T02:07:12.212Z,996.99
2018-06-01T02:08:11.557Z,997.37
2018-06-01T02:09:11.563Z,997.32
2018-06-01T02:10:11.580Z,997.09
2018-06-01T02:11:11.606Z,997.02
2018-06-01T02:12:11.569Z,997.06
2018-06-01T02:13:11.563Z,996.96
2018-06-01T02:14:11.561Z,997.19
2018-06-01T02:15:11.555Z,997
2018-06-01T02:16:11.593Z,997.12
2018-06-01T02:17:11.567Z,997.45
2018-06-01T02:18:11.601Z,997.19
2018-06-01T02:19:11.594Z,997.17
2018-06-01T02:20:11.625Z,997.46
2018-06-01T02:21:12.383Z,997.36
2018-06-01T02:22:11.565Z,997.33
2018-06-01T02:23:11.580Z,997.29
2018-06-01T02:24:11.580Z,997.34
2018-06-01T02:25:11.597Z,997.64
2018-06-01T02:26:11.620Z,997.54
2018-06-01T02:27:11.605Z,997.27
2018-06-01T02:28:11.605Z,997.28
2018-06-01T02:29:11.589Z,997.28
2018-06-01T02:30:11.605Z,997.37
2018-06-01T02:31:11.595Z,997.36
2018-06-01T02:32:11.616Z,997.2
2018-06-01T02:33:11.585Z,997.18
2018-06-01T02:34:11.607Z,997.23
2018-06-01T02:35:11.597Z,997.16
2018-06-01T02:36:11.589Z,997.42
2018-06-01T02:37:11.616Z,997.13
2018-06-01T02:38:11.603Z,997.31
2018-06-01T02:39:11.633Z,997.22
2018-06-01T02:40:11.657Z,997.2
2018-06-01T02:41:11.624Z,997.29
2018-06-01T02:42:11.605Z,997.25
2018-06-01T02:43:11.591Z,997.17
2018-06-01T02:44:11.623Z,997.63
2018-06-01T02:45:11.646Z,997.45
2018-06-01T02:46:11.672Z,997.51
2018-06-01T02:47:11.614Z,997.3
2018-06-01T02:48:11.619Z,997.06
2018-06-01T02:49:11.654Z,997.36
2018-06-01T02:50:11.662Z,996.8
2018-06-01T02:51:11.721Z,996.93
2018-06-01T02:52:11.612Z,997.02
2018-06-01T02:53:11.637Z,996.98
2018-06-01T02:54:11.639Z,997.07
2018-06-01T02:55:11.683Z,996.52
2018-06-01T02:56:11.650Z,996.68
2018-06-01T02:57:11.645Z,996.86
2018-06-01T02:58:11.642Z,996.65
2018-06-01T02:59:11.638Z,996.74
2018-06-01T03:00:11.684Z,996.35
2018-06-01T03:01:11.644Z,996.34
2018-06-01T03:02:11.651Z,996.59
2018-06-01T03:03:11.661Z,996.58
2018-06-01T03:04:11.646Z,996.76
2018-06-01T03:05:12.351Z,996.34
2018-06-01T03:06:12.413Z,996.38
2018-06-01T03:07:11.651Z,996.55
2018-06-01T03:08:11.669Z,996.45
2018-06-01T03:09:11.723Z,996.23
2018-06-01T03:10:11.685Z,996.25
2018-06-01T03:11:11.655Z,996.3
2018-06-01T03:12:11.641Z,996.52
2018-06-01T03:13:11.668Z,996.12
2018-06-01T03:14:11.688Z,996.22
2018-06-01T03:15:11.697Z,995.67
2018-06-01T03:16:11.666Z,995.54
2018-06-01T03:17:11.669Z,995.62
2018-06-01T03:18:11.681Z,995.74
2018-06-01T03:19:11.677Z,995.68
2018-06-01T03:20:11.672Z,995.65
2018-06-01T03:21:11.710Z,995.66
2018-06-01T03:22:11.665Z,996.18
2018-06-01T03:23:11.667Z,995.23
2018-06-01T03:24:11.674Z,995.56
2018-06-01T03:25:11.824Z,995.37
2018-06-01T03:26:11.686Z,995.34
2018-06-01T03:27:11.708Z,995.37
2018-06-01T03:28:11.705Z,995.07
2018-06-01T03:29:11.705Z,995.01
2018-06-01T03:30:11.717Z,994.98
2018-06-01T03:31:11.698Z,994.98
2018-06-01T03:32:11.702Z,994.96
2018-06-01T03:33:11.693Z,994.88
2018-06-01T03:34:11.699Z,994.81
2018-06-01T03:35:11.700Z,994.75
2018-06-01T03:36:11.696Z,994.66
2018-06-01T03:37:11.744Z,994.55
2018-06-01T03:38:11.705Z,994.6
2018-06-01T03:39:11.719Z,994.39
2018-06-01T03:40:11.733Z,994.69
2018-06-01T03:41:11.739Z,994.6
2018-06-01T03:42:11.723Z,994.72
2018-06-01T03:43:11.731Z,994.78
2018-06-01T03:44:11.727Z,994.93
2018-06-01T03:45:11.768Z,994.71
2018-06-01T03:46:11.732Z,994.55
2018-06-01T03:47:11.705Z,994.7
2018-06-01T03:48:11.720Z,994.43
2018-06-01T03:49:11.723Z,994.76
2018-06-01T03:50:11.781Z,994.68
2018-06-01T03:51:11.786Z,994.78
2018-06-01T03:52:11.758Z,994.98
2018-06-01T03:53:11.754Z,994.85
2018-06-01T03:54:11.745Z,994.6
2018-06-01T03:55:11.791Z,994.73
2018-06-01T03:56:11.761Z,994.87
2018-06-01T03:57:11.754Z,994.69
2018-06-01T03:58:11.758Z,994.79
2018-06-01T03:59:11.752Z,994.84
2018-06-01T04:00:11.852Z,995.05
2018-06-01T04:01:11.779Z,994.79
2018-06-01T04:02:11.756Z,994.82
2018-06-01T04:03:11.771Z,994.66
2018-06-01T04:04:11.767Z,994.8
2018-06-01T04:05:11.779Z,994.43
2018-06-01T04:06:11.752Z,994.45
2018-06-01T04:07:11.788Z,994.37
2018-06-01T04:11:40.434Z,994.48
2018-06-01T04:12:40.474Z,994.47
2018-06-01T04:13:40.404Z,994.47
2018-06-01T04:14:40.421Z,994.56
2018-06-01T04:15:40.461Z,994.62
2018-06-01T04:16:40.442Z,994.54
2018-06-01T04:17:40.472Z,994.47
2018-06-01T04:18:40.427Z,994.67
2018-06-01T04:19:40.472Z,994.71
2018-06-01T04:20:42.380Z,995.2
2018-06-01T04:21:40.456Z,995
2018-06-01T04:22:40.464Z,995.23
2018-06-01T04:23:40.449Z,995.5
2018-06-01T04:24:40.453Z,995.53
2018-06-01T04:25:40.478Z,995.37
2018-06-01T04:26:40.462Z,995.6
2018-06-01T04:27:40.479Z,995.47
2018-06-01T04:28:40.457Z,995.57
2018-06-01T04:29:40.449Z,995.31
2018-06-01T04:30:40.466Z,995.7
2018-06-01T04:31:40.450Z,995.41
2018-06-01T04:32:40.499Z,995.38
2018-06-01T04:33:40.485Z,995.31
2018-06-01T04:34:40.471Z,995.38
2018-06-01T04:35:40.484Z,995.21
2018-06-01T04:36:40.472Z,995.58
2018-06-01T04:37:40.491Z,995.3
2018-06-01T04:38:40.511Z,995.51
2018-06-01T04:39:40.490Z,995.33
2018-06-01T04:40:40.473Z,994.84
2018-06-01T04:41:40.480Z,995.31
2018-06-01T04:42:40.466Z,995.25
2018-06-01T04:43:40.489Z,995.41
2018-06-01T04:44:40.481Z,995.3
2018-06-01T04:45:40.485Z,995.39
2018-06-01T04:46:40.496Z,995.39
2018-06-01T04:47:40.518Z,995.58
2018-06-01T04:48:40.471Z,995.55
2018-06-01T04:49:40.520Z,995.61
2018-06-01T04:50:40.540Z,995.8
2018-06-01T04:51:40.521Z,995.52
2018-06-01T04:52:40.502Z,995.52
2018-06-01T04:53:40.534Z,995.66
2018-06-01T04:54:40.487Z,995.54
2018-06-01T04:55:40.497Z,995.66
2018-06-01T04:56:40.557Z,995.49
2018-06-01T04:57:40.532Z,995.61
2018-06-01T04:58:40.494Z,995.34
2018-06-01T04:59:40.537Z,995.76
2018-06-01T05:00:41.355Z,995.55
2018-06-01T05:01:40.555Z,995.69
2018-06-01T05:02:40.523Z,995.64
2018-06-01T05:03:40.559Z,995.65
2018-06-01T05:04:40.528Z,995.67
2018-06-01T05:05:40.659Z,995.59
2018-06-01T05:06:40.518Z,995.49
2018-06-01T05:07:40.546Z,995.78
2018-06-01T05:08:40.533Z,995.56
2018-06-01T05:10:59.245Z,995.46
2018-06-01T05:11:59.261Z,995.54
2018-06-01T05:12:59.233Z,995.58
2018-06-01T05:13:59.223Z,995.78
2018-06-01T05:14:59.212Z,995.93
2018-06-01T05:15:59.213Z,995.68
2018-06-01T05:16:59.206Z,995.95
2018-06-01T05:17:59.211Z,995.93
2018-06-01T05:18:59.217Z,996.02
2018-06-01T05:19:59.222Z,995.87
2018-06-01T05:20:59.209Z,996.12
2018-06-01T05:21:59.257Z,995.82
2018-06-01T05:22:59.262Z,995.87
2018-06-01T05:23:59.236Z,995.97
2018-06-01T05:24:59.254Z,995.5
2018-06-01T05:25:59.243Z,995.73
2018-06-01T05:30:28.496Z,996.32
2018-06-01T05:31:28.582Z,996.37
2018-06-01T05:32:28.526Z,996.18
2018-06-01T05:33:28.504Z,996.29
2018-06-01T05:34:28.510Z,996.22
2018-06-01T05:35:28.575Z,996.02
2018-06-01T05:36:28.579Z,995.94
2018-06-01T05:37:28.518Z,995.82
2018-06-01T05:38:28.541Z,995.76
2018-06-01T05:39:28.563Z,995.86
2018-06-01T05:40:28.557Z,996.02
2018-06-01T05:41:28.545Z,995.93
2018-06-01T05:42:28.530Z,995.89
2018-06-01T05:43:28.527Z,996.09
2018-06-01T05:44:28.522Z,996.11
2018-06-01T05:45:28.534Z,996.21
2018-06-01T05:46:28.527Z,996.19
2018-06-01T05:47:28.547Z,996.06
2018-06-01T05:48:28.542Z,995.87
2018-06-01T05:49:28.529Z,995.81
2018-06-01T05:50:28.535Z,995.71
2018-06-01T05:51:28.597Z,995.73
2018-06-01T05:52:28.553Z,995.65
2018-06-01T05:53:28.573Z,995.34
2018-06-01T05:54:28.575Z,995.43
2018-06-01T05:55:28.526Z,995.45
2018-06-01T05:56:28.542Z,995.14
2018-06-01T05:57:28.591Z,995.13
2018-06-01T05:58:28.533Z,994.97
2018-06-01T05:59:29.331Z,994.87
2018-06-01T06:00:28.568Z,995.36
2018-06-01T06:01:28.573Z,995.93
2018-06-01T06:02:28.541Z,997.27
2018-06-01T06:03:28.618Z,999.47
2018-06-01T06:04:28.616Z,1002.06
2018-06-01T06:05:28.651Z,1003.99
2018-06-01T06:06:28.767Z,1005.62
2018-06-01T06:07:28.563Z,1007.26
2018-06-01T06:08:28.561Z,1008.36
2018-06-01T06:09:28.576Z,1010.08
2018-06-01T06:10:28.544Z,1011.59
2018-06-01T06:11:28.576Z,1012.6
2018-06-01T06:12:28.579Z,1013.15
2018-06-01T06:13:28.571Z,1013.69
2018-06-01T06:14:28.615Z,1014.63
2018-06-01T06:15:28.560Z,1016.58
2018-06-01T06:16:28.606Z,1018.34
2018-06-01T06:17:28.613Z,1020.62
2018-06-01T06:18:28.572Z,1022.55
2018-06-01T06:19:28.568Z,1024.05
2018-06-01T06:20:28.591Z,1025.13
2018-06-01T06:21:28.581Z,1026.03
2018-06-01T06:22:28.583Z,1026.78
2018-06-01T06:23:28.608Z,1027.56
2018-06-01T06:27:57.343Z,1029.01
2018-06-01T06:28:57.331Z,1029.48
2018-06-01T06:29:57.324Z,1030.07
2018-06-01T06:30:57.314Z,1030.62
2018-06-01T06:31:57.316Z,1030.98
2018-06-01T06:32:57.343Z,1030.83
2018-06-01T06:33:57.345Z,1031.81
2018-06-01T06:34:57.330Z,1031.88
2018-06-01T06:40:14.692Z,1032.46
2018-06-01T06:40:25.755Z,1034.45
2018-06-01T06:41:25.754Z,1035.35
2018-06-01T06:42:25.771Z,1035.64
2018-06-01T06:43:25.733Z,1036.55
2018-06-01T06:44:25.731Z,1036.77
2018-06-01T06:45:25.763Z,1037.89
2018-06-01T06:46:25.737Z,1038.2
2018-06-01T06:47:25.729Z,1038.81
2018-06-01T06:48:25.727Z,1039.55
2018-06-01T06:49:25.728Z,1039.81
2018-06-01T06:50:25.729Z,1040.02
2018-06-01T06:51:25.737Z,1040.78
2018-06-01T06:52:25.745Z,1040.86
2018-06-01T06:53:25.748Z,1041.47
2018-06-01T06:54:25.754Z,1042.61
2018-06-01T06:55:25.751Z,1043.64
2018-06-01T06:56:26.409Z,1045.15
2018-06-01T06:57:25.760Z,1046.74
2018-06-01T06:58:25.746Z,1048.16
2018-06-01T06:59:25.769Z,1049.98
2018-06-01T07:00:25.779Z,1052.07
2018-06-01T07:01:25.758Z,1053.19
2018-06-01T07:02:25.771Z,1054.55
2018-06-01T07:03:25.773Z,1055.69
2018-06-01T07:04:25.758Z,1056.76
2018-06-01T07:05:25.759Z,1057.44
2018-06-01T07:06:25.753Z,1058.19
2018-06-01T07:07:25.782Z,1058.63
2018-06-01T07:08:25.784Z,1059.17
2018-06-01T07:09:25.770Z,1059.93
2018-06-01T07:10:25.783Z,1060.51
2018-06-01T07:11:25.783Z,1061.2
2018-06-01T07:12:25.783Z,1061.72
2018-06-01T07:13:25.785Z,1062.71
2018-06-01T07:14:25.806Z,1063.15
2018-06-01T07:15:25.791Z,1063.6
2018-06-01T07:16:25.810Z,1064.09
2018-06-01T07:17:25.789Z,1064.79
2018-06-01T07:18:25.817Z,1065.08
2018-06-01T07:19:25.801Z,1065.47
2018-06-01T07:20:25.851Z,1065.98
2018-06-01T07:21:25.807Z,1066.23
2018-06-01T07:22:25.866Z,1066.46
2018-06-01T07:23:25.842Z,1066.76
2018-06-01T07:24:25.808Z,1067.06
2018-06-01T07:25:25.801Z,1067.43
2018-06-01T07:26:25.807Z,1067.97
2018-06-01T07:27:25.852Z,1068.73
2018-06-01T07:28:25.808Z,1069.23
2018-06-01T07:29:25.854Z,1070.18
2018-06-01T07:30:25.803Z,1071.09
2018-06-01T07:31:25.800Z,1071.64
2018-06-01T07:32:25.808Z,1072.19
2018-06-01T07:33:25.810Z,1072.59
2018-06-01T07:34:25.819Z,1073.03
2018-06-01T07:35:25.847Z,1073.59
2018-06-01T07:36:25.843Z,1073.44
2018-06-01T07:37:25.865Z,1073.97
2018-06-01T07:38:25.833Z,1074.63
2018-06-01T07:39:25.867Z,1074.96
2018-06-01T07:40:25.829Z,1075.44
2018-06-01T07:41:25.840Z,1075.99
2018-06-01T07:42:25.843Z,1076.44
2018-06-01T07:43:25.846Z,1076.71
2018-06-01T07:44:25.834Z,1077.25
2018-06-01T07:45:25.848Z,1077.8
2018-06-01T07:46:25.828Z,1078.1
2018-06-01T07:47:25.862Z,1078.4
2018-06-01T07:48:25.861Z,1078.55
2018-06-01T07:49:25.857Z,1079.03
2018-06-01T07:50:25.839Z,1079.25
2018-06-01T07:51:25.839Z,1079.85
2018-06-01T07:52:25.847Z,1080.38
2018-06-01T07:53:25.831Z,1080.9
2018-06-01T07:54:25.861Z,1081.28
2018-06-01T07:55:25.897Z,1081.82
2018-06-01T07:56:25.907Z,1081.95
2018-06-01T07:57:25.863Z,1082.11
2018-06-01T07:58:25.902Z,1082.4
2018-06-01T07:59:25.872Z,1082.51
2018-06-01T08:00:25.901Z,1083.08
2018-06-01T08:01:25.894Z,1083.61
2018-06-01T08:02:25.907Z,1083.93
2018-06-01T08:03:25.908Z,1084.43
2018-06-01T08:04:25.893Z,1084.66
2018-06-01T08:05:25.870Z,1084.95
2018-06-01T08:06:25.877Z,1085.52
2018-06-01T08:07:25.894Z,1085.54
2018-06-01T08:08:26.442Z,1086.12
2018-06-01T08:09:25.879Z,1086.44
2018-06-01T08:10:25.868Z,1086.35
2018-06-01T08:11:25.870Z,1086.38
2018-06-01T08:12:25.943Z,1086.33
2018-06-01T08:13:25.903Z,1086.28
2018-06-01T08:14:25.901Z,1086.04
2018-06-01T08:15:25.902Z,1085.84
2018-06-01T08:16:25.898Z,1085.43
2018-06-01T08:17:25.888Z,1085.05
2018-06-01T08:18:25.911Z,1084.91
2018-06-01T08:19:25.878Z,1084.55
2018-06-01T08:20:25.908Z,1084.72
2018-06-01T08:21:25.946Z,1084.66
2018-06-01T08:22:25.910Z,1084.95
2018-06-01T08:23:25.909Z,1085.26
2018-06-01T08:24:25.921Z,1085.04
2018-06-01T08:25:25.902Z,1084.86
2018-06-01T08:26:25.930Z,1084.62
2018-06-01T08:27:25.911Z,1084.13
2018-06-01T08:28:25.898Z,1083.77
2018-06-01T08:29:25.908Z,1083.45
2018-06-01T08:30:25.939Z,1082.98
2018-06-01T08:31:25.909Z,1082.97
2018-06-01T08:32:25.938Z,1082.83
2018-06-01T08:33:25.909Z,1082.58
2018-06-01T08:34:25.938Z,1082.43
2018-06-01T08:35:25.929Z,1082.18
2018-06-01T08:36:25.927Z,1082.06
2018-06-01T08:37:25.933Z,1081.68
2018-06-01T08:38:25.940Z,1081.61
2018-06-01T08:39:25.978Z,1081.42
2018-06-01T08:40:25.915Z,1081.14
2018-06-01T08:41:25.925Z,1080.94
2018-06-01T08:42:25.950Z,1080.81
2018-06-01T08:43:25.934Z,1080.41
2018-06-01T08:44:25.961Z,1080.35
2018-06-01T08:45:25.929Z,1080.33
2018-06-01T08:46:26.020Z,1080.47
2018-06-01T08:47:26.005Z,1080.53
2018-06-01T08:48:25.947Z,1080.67
2018-06-01T08:49:25.973Z,1080.7
2018-06-01T08:50:25.978Z,1080.84
2018-06-01T08:51:26.741Z,1080.88
2018-06-01T08:52:26.016Z,1081.06
2018-06-01T08:53:25.975Z,1081.18
2018-06-01T08:54:25.966Z,1081.07
2018-06-01T08:55:25.973Z,1080.86
2018-06-01T08:56:25.983Z,1080.71
2018-06-01T08:57:26.680Z,1080.53
2018-06-01T08:58:25.954Z,1080.64
2018-06-01T08:59:26.006Z,1080.51
2018-06-01T09:00:25.963Z,1080.26
2018-06-01T09:01:25.948Z,1079.93
2018-06-01T09:02:25.998Z,1079.53
2018-06-01T09:03:25.984Z,1079.01
2018-06-01T09:04:25.965Z,1078.4
2018-06-01T09:05:25.996Z,1078.07
2018-06-01T09:06:25.977Z,1077.82
2018-06-01T09:07:25.971Z,1077.81
2018-06-01T09:08:25.993Z,1077.84
2018-06-01T09:09:25.987Z,1078.08
2018-06-01T09:10:25.990Z,1077.91
2018-06-01T09:11:25.979Z,1077.56
2018-06-01T09:12:25.987Z,1077.14
2018-06-01T09:13:27.029Z,1076.78
2018-06-01T09:14:26.035Z,1076.35
2018-06-01T09:15:26.029Z,1076.28
2018-06-01T09:16:26.037Z,1076.06
2018-06-01T09:17:26.047Z,1076.1
2018-06-01T09:18:26.024Z,1075.68
2018-06-01T09:19:26.050Z,1074.83
2018-06-01T09:20:26.019Z,1074.14
2018-06-01T09:21:26.045Z,1073.18
2018-06-01T09:22:26.069Z,1072.24
2018-06-01T09:23:26.031Z,1071.42
2018-06-01T09:24:26.042Z,1070.59
2018-06-01T09:25:26.297Z,1069.86
2018-06-01T09:26:26.075Z,1069.28
2018-06-01T09:27:26.042Z,1068.94
2018-06-01T09:28:26.081Z,1068.43
2018-06-01T09:29:26.094Z,1067.68
2018-06-01T09:30:26.068Z,1067.17
2018-06-01T09:31:26.089Z,1066.66
2018-06-01T09:32:26.075Z,1065.96
2018-06-01T09:33:26.101Z,1065.34
2018-06-01T09:34:26.114Z,1064.76
2018-06-01T09:35:26.056Z,1064.2
2018-06-01T09:36:26.093Z,1063.68
2018-06-01T09:37:26.100Z,1062.79
2018-06-01T09:38:26.109Z,1062.43
2018-06-01T09:39:26.094Z,1061.67
2018-06-01T09:40:26.101Z,1061
2018-06-01T09:41:26.099Z,1060.9
2018-06-01T09:42:26.103Z,1061.05
2018-06-01T09:43:26.089Z,1061.26
2018-06-01T09:44:26.086Z,1061.38
2018-06-01T09:45:26.069Z,1061.34
2018-06-01T09:46:26.079Z,1061.75
2018-06-01T09:47:26.108Z,1061.62
2018-06-01T09:48:26.129Z,1061.66
2018-06-01T09:49:26.085Z,1061.48
2018-06-01T09:50:26.096Z,1061.17
2018-06-01T09:51:26.147Z,1061.11
2018-06-01T09:52:26.145Z,1060.89
2018-06-01T09:53:26.130Z,1060.46
2018-06-01T09:54:26.116Z,1060.24
2018-06-01T09:55:26.129Z,1060.47
2018-06-01T09:56:26.131Z,1060.28
2018-06-01T09:57:26.126Z,1059.97
2018-06-01T09:58:26.112Z,1059.75
2018-06-01T09:59:26.105Z,1059.88
2018-06-01T10:00:26.110Z,1059.77
2018-06-01T10:01:26.105Z,1059.66
2018-06-01T10:02:26.103Z,1059.57
2018-06-01T10:03:26.089Z,1059.89
2018-06-01T10:04:26.142Z,1059.87
2018-06-01T10:05:26.113Z,1060.12
2018-06-01T10:06:26.132Z,1060.33
2018-06-01T10:07:26.143Z,1060.41
2018-06-01T10:08:26.131Z,1060.52
2018-06-01T10:09:26.127Z,1060.56
2018-06-01T10:10:26.121Z,1060.66
2018-06-01T10:11:26.123Z,1060.37
2018-06-01T10:12:26.111Z,1060.36
2018-06-01T10:13:26.131Z,1060.13
2018-06-01T10:14:26.136Z,1059.9
2018-06-01T10:15:26.161Z,1059.59
2018-06-01T10:16:26.125Z,1059.07
2018-06-01T10:17:26.141Z,1059.04
2018-06-01T10:18:26.212Z,1058.65
2018-06-01T10:19:26.129Z,1058.38
2018-06-01T10:20:26.153Z,1058.09
2018-06-01T10:21:26.173Z,1057.97
2018-06-01T10:22:26.159Z,1057.43
2018-06-01T10:23:26.142Z,1057.43
2018-06-01T10:24:26.165Z,1057.32
2018-06-01T10:25:26.149Z,1057.04
2018-06-01T10:26:26.143Z,1056.73
2018-06-01T10:27:26.162Z,1056.63
2018-06-01T10:28:26.157Z,1056.35
2018-06-01T10:29:26.159Z,1056.18
2018-06-01T10:30:26.145Z,1055.8
2018-06-01T10:31:26.171Z,1055.72
2018-06-01T10:32:26.162Z,1055.33
2018-06-01T10:33:26.181Z,1055.17
2018-06-01T10:37:54.547Z,1052
2018-06-01T10:38:54.525Z,1050.77
2018-06-01T10:39:54.549Z,1049.83
2018-06-01T10:40:54.540Z,1048.83
2018-06-01T10:41:54.543Z,1048.03
2018-06-01T10:42:54.566Z,1047.04
2018-06-01T10:43:54.550Z,1045.86
2018-06-01T10:44:54.539Z,1045.27
2018-06-01T10:45:54.630Z,1044.49
2018-06-01T10:46:54.547Z,1043.55
2018-06-01T10:47:54.547Z,1042.76
2018-06-01T10:48:54.543Z,1041.83
2018-06-01T10:49:54.571Z,1040.93
2018-06-01T10:50:54.573Z,1040.38
2018-06-01T10:51:54.546Z,1039.79
2018-06-01T10:52:54.574Z,1039.28
2018-06-01T10:53:54.599Z,1038.46
2018-06-01T10:54:54.554Z,1037.84
2018-06-01T10:55:54.587Z,1037.05
2018-06-01T10:56:54.576Z,1036.4
2018-06-01T10:57:54.564Z,1035.68
2018-06-01T10:58:54.565Z,1034.98
2018-06-01T10:59:54.571Z,1034.03
2018-06-01T11:00:54.566Z,1033.35
2018-06-01T11:01:54.589Z,1032.75
2018-06-01T11:02:54.585Z,1031.54
2018-06-01T11:03:54.581Z,1031.28
2018-06-01T11:04:54.582Z,1030.37
2018-06-01T11:05:54.567Z,1029.99
2018-06-01T11:06:54.582Z,1029.32
2018-06-01T11:07:54.603Z,1028.82
2018-06-01T11:08:54.592Z,1028.9
2018-06-01T11:09:54.595Z,1028.36
2018-06-01T11:10:54.643Z,1028.19
2018-06-01T11:11:54.586Z,1028.1
2018-06-01T11:12:54.614Z,1027.43
2018-06-01T11:13:54.611Z,1026.89
2018-06-01T11:14:54.609Z,1026.45
2018-06-01T11:15:54.611Z,1026.4
2018-06-01T11:16:54.607Z,1025.95
2018-06-01T11:17:54.625Z,1025.79
2018-06-01T11:18:54.653Z,1025.58
2018-06-01T11:19:54.615Z,1024.93
2018-06-01T11:20:54.691Z,1024.64
2018-06-01T11:21:54.631Z,1024.4
2018-06-01T11:22:54.602Z,1024.39
2018-06-01T11:23:54.649Z,1023.79
2018-06-01T11:24:54.616Z,1023.93
2018-06-01T11:25:54.626Z,1023.66
2018-06-01T11:26:54.666Z,1023.42
2018-06-01T11:27:54.617Z,1023.47
2018-06-01T11:28:54.641Z,1023.23
2018-06-01T11:29:54.609Z,1023.38
2018-06-01T11:30:54.664Z,1023.15
2018-06-01T11:31:54.637Z,1022.97
2018-06-01T11:32:54.684Z,1022.92
2018-06-01T11:33:54.636Z,1022.9
2018-06-01T11:34:54.645Z,1022.79
2018-06-01T11:35:54.623Z,1022.77
2018-06-01T11:36:54.651Z,1022.93
2018-06-01T11:37:54.633Z,1022.86
2018-06-01T11:38:54.648Z,1022.57
2018-06-01T11:39:54.653Z,1022.65
2018-06-01T11:40:54.694Z,1022.59
2018-06-01T11:41:54.656Z,1022.83
2018-06-01T11:42:54.649Z,1022.78
2018-06-01T11:43:54.643Z,1022.58
2018-06-01T11:44:55.642Z,1022.76
2018-06-01T11:45:55.269Z,1022.98
2018-06-01T11:46:54.676Z,1022.26
2018-06-01T11:47:54.676Z,1022.81
2018-06-01T11:48:54.674Z,1022.77
2018-06-01T11:49:54.680Z,1022.49
2018-06-01T11:50:54.743Z,1022.32
2018-06-01T11:51:54.676Z,1022.64
2018-06-01T11:52:54.691Z,1022.52
2018-06-01T11:53:54.685Z,1022.25
2018-06-01T11:54:54.664Z,1022.25
2018-06-01T11:55:54.668Z,1022.27
2018-06-01T11:56:54.663Z,1021.91
2018-06-01T11:57:54.683Z,1022.22
2018-06-01T11:58:54.712Z,1022.01
2018-06-01T11:59:54.671Z,1021.94
2018-06-01T12:00:54.700Z,1021.83
2018-06-01T12:01:54.687Z,1021.93
2018-06-01T12:02:54.662Z,1021.69
2018-06-01T12:03:54.683Z,1021.88
2018-06-01T12:04:54.709Z,1021.78
2018-06-01T12:05:54.709Z,1021.69
2018-06-01T12:06:54.691Z,1021.82
2018-06-01T12:07:54.691Z,1021.65
2018-06-01T12:08:54.694Z,1021.79
2018-06-01T12:09:54.704Z,1021.83
2018-06-01T12:10:54.729Z,1021.52
2018-06-01T12:11:54.697Z,1021.63
2018-06-01T12:12:54.701Z,1021.57
2018-06-01T12:13:54.714Z,1021.47
2018-06-01T12:14:54.730Z,1021.54
2018-06-01T12:15:55.174Z,1021.24
2018-06-01T12:16:55.362Z,1021.49
2018-06-01T12:17:54.714Z,1021.49
2018-06-01T12:18:54.760Z,1021.29
2018-06-01T12:19:54.724Z,1020.98
2018-06-01T12:20:54.762Z,1020.93
2018-06-01T12:21:54.710Z,1020.69
2018-06-01T12:22:54.731Z,1020.78
2018-06-01T12:23:54.751Z,1020.58
2018-06-01T12:24:54.757Z,1020.8
2018-06-01T12:25:54.723Z,1020.78
2018-06-01T12:26:54.770Z,1020.53
2018-06-01T12:27:54.723Z,1020.79
2018-06-01T12:28:54.735Z,1020.48
2018-06-01T12:29:54.765Z,1020.5
2018-06-01T12:30:54.726Z,1020.4
2018-06-01T12:31:54.776Z,1020.35
2018-06-01T12:32:54.734Z,1020.28
2018-06-01T12:33:54.754Z,1020.42
2018-06-01T12:34:54.750Z,1020.16
2018-06-01T12:35:54.773Z,1020.44
2018-06-01T12:36:54.744Z,1020
2018-06-01T12:37:54.742Z,1020.34
2018-06-01T12:38:54.731Z,1020.13
2018-06-01T12:39:54.795Z,1019.68
2018-06-01T12:40:54.760Z,1019.97
2018-06-01T12:41:54.752Z,1019.94